Tiempo atmosférico en la estación meteorológica de Cañaveral, Cáceres (373 m.)



Fecha
DESCASC
Temp. máxima en grados centígrados (hora)
DESCASC
Temp. mínima en grados centígrados (hora)
DESCASC
Temp. media en grados centígrados
DESCASC
Racha de viento máxima en m/sg (hora)
DESCASC
Velocidad máxima media en intervalos de 10 minutos(hora)
DESCASC
Precipitaciones diarias en mm
DESCASC
Precipitaciones de 00:00 a 06:00 en mm
DESCASC
Precipitaciones de 06:00 a 12:00 en mm
DESCASC
Precipitaciones de 12:00 a 18:00 en mm
DESCASC
Precipitaciones de 18:00 a 24:00 en mm
DESCASC
06-07-2020 39.7 (16:50) 24.8 (07:40) 32.3 11.11 (23:30) 7.5 (23:59) 0 0 0 0 0
05-07-2020 38.5 (17:10) 25.6 (07:20) 32.1 13.61 (09:00) 9.17 (08:30) 0 0 0 0 0
04-07-2020 36.5 (17:00) 22.3 (07:30) 29.4 11.94 (03:00) 8.61 (03:40) 0 0 0 0 0
03-07-2020 33 (16:30) 18.1 (06:40) 25.6 11.94 (04:00) 8.33 (08:40) 0 0 0 0 0
02-07-2020 31.6 (16:20) 18.3 (00:00) 24.9 12.5 (16:30) 7.5 (16:30) 0 0 0 0 0
01-07-2020 35.6 (17:50) 17.7 (00:00) 26.6 11.39 (16:50) 7.5 (00:10) 0 0 0 0 0
30-06-2020 38.1 (17:00) 21.9 (00:00) 30 11.39 (16:30) 7.78 (20:40) 0 0 0 0 0
29-06-2020 37.3 (17:30) 22.4 (00:00) 29.8 12.5 (04:20) 9.44 (04:20) 0 0 0 0 0
28-06-2020 34.4 (18:20) 20.7 (00:00) 27.6 11.67 (03:00) 8.61 (03:00) 0 0 0 0 0
27-06-2020 32.4 (18:50) 16 (00:00) 24.2 10.56 (22:30) 7.5 (22:30) 0 0 0 0 0
26-06-2020 30 (17:00) 12.8 (00:00) 21.4 10.28 (23:00) 7.22 (23:00) 0 0 0 0 0
25-06-2020 33.7 (15:20) 19.3 (00:00) 26.5 9.72 (18:30) 6.39 (20:00) 0 0 0 0 0
24-06-2020 36.3 (18:30) 22.7 (00:00) 29.5 10.83 (18:50) 6.11 (16:20) 0 0 0 0 0
23-06-2020 39.1 (17:50) 24.3 (00:00) 31.7 11.39 (16:20) 7.22 (07:50) 0 0 0 0 0
22-06-2020 37.8 (18:30) 22 (00:00) 29.9 15 (10:00) 9.72 (10:10) 0 0 0 0 0
21-06-2020 33.8 (18:00) 16.4 (00:00) 25.1 10.56 (23:20) 7.5 (10:40) 0 0 0 0 0
20-06-2020 33.3 (18:40) 17.2 (00:00) 25.3 11.39 (06:20) 7.22 (06:10) 0 0 0 0 0
19-06-2020 31 (18:40) 13.6 (00:00) 22.3 10.83 (00:10) 7.78 (00:10) 0 0 0 0 0
18-06-2020 29.7 (17:40) 12.8 (00:00) 21.3 10.83 (23:50) 8.33 (23:59) 0 0 0 0 0
17-06-2020 27.3 (17:50) 11.6 (00:00) 19.4 10 (00:10) 6.94 (00:10) 0 0 0 0 0
16-06-2020 27.2 (15:40) 13.9 (00:00) 20.6 13.89 (18:30) 8.61 (19:10) 0 0 0 0 0
15-06-2020 27.5 (18:10) 12.2 (00:00) 19.8 9.44 (23:20) 6.94 (23:20) 0 0 0 0 0
14-06-2020 26.8 (17:40) 11.9 (00:00) 19.3 11.11 (22:30) 7.22 (22:40) 0 0 0 0 0
13-06-2020 22.8 (15:10) 10.2 (00:00) 16.5 10 (20:00) 6.67 (23:40) 0 0 0 0 0
12-06-2020 21.9 (17:20) 8.6 (00:00) 15.3 15.83 (17:40) 9.17 (19:50) 0 0 0 0 0
11-06-2020 24.8 (16:10) 11.6 (00:00) 18.2 20.83 (18:50) 13.61 (18:50) 0 0 0 0 0

Gráficas

Temp. máximas Temp. mínimas Temp. medias Precipitaciones Rachas de viento máximas Velocidades máximas media en intervalos de 10 minutos

Datos horarios

Fecha y hora oficial Temperatura (ºC) Velocidad del viento (km/h) Dirección del viento Racha (km/h) Dirección de racha Precipitación (mm) Presión (hPa) Tendencia (hPa) Humedad (%)
2020-07-10 23:00:00 30.7 7 Nordeste 9 Norte 0 -- -- 30
2020-07-10 22:00:00 32.1 8 Norte 8 Norte 0 -- -- 29
2020-07-10 21:00:00 35.1 7 Norte 17 Norte 0 -- -- 26
2020-07-10 20:00:00 36.2 5 Nordeste 18 Norte 0 -- -- 23
2020-07-10 19:00:00 36.4 8 Noroeste 26 Oeste 0 -- -- 24
2020-07-10 18:00:00 36.6 10 Este 22 Norte 0 -- -- 20
2020-07-10 17:00:00 36 10 Noroeste 23 Noroeste 0 -- -- 20
2020-07-10 16:00:00 35.5 8 Norte 23 Nordeste 0 -- -- 23
2020-07-10 15:00:00 34.9 9 Nordeste 19 Norte 0 -- -- 26
2020-07-10 14:00:00 33.4 11 Norte 19 Norte 0 -- -- 29
2020-07-10 13:00:00 32.7 9 Norte 21 Este 0 -- -- 29
2020-07-10 12:00:00 32 8 Este 19 Sudeste 0 -- -- 31
2020-07-10 11:00:00 29.6 9 Este 19 Este 0 -- -- 35
2020-07-10 10:00:00 27.7 11 Este 24 Este 0 -- -- 39
2020-07-10 09:00:00 24.8 11 Nordeste 19 Nordeste 0 -- -- 43
2020-07-10 08:00:00 22.9 8 Nordeste 17 Nordeste 0 -- -- 46
2020-07-10 07:00:00 22.3 5 Nordeste 21 Este 0 -- -- 47
2020-07-10 06:00:00 22.9 8 Nordeste 19 Nordeste 0 -- -- 46
2020-07-10 05:00:00 23.1 10 Nordeste 21 Este 0 -- -- 45
2020-07-10 04:00:00 24.6 12 Nordeste 24 Este 0 -- -- 41
2020-07-10 03:00:00 25.2 12 Este 24 Nordeste 0 -- -- 41
2020-07-10 02:00:00 26.8 16 Nordeste 32 Este 0 -- -- 37
2020-07-10 01:00:00 28.1 12 Nordeste 29 Norte 0 -- -- 30
2020-07-10 00:00:00 30.5 21 Noroeste 31 Noroeste 0 -- -- 24
2020-07-09 23:00:00 28.3 2 Norte 8 Noroeste 0 -- -- 27
2020-07-09 22:00:00 30.2 4 Norte 6 Norte 0 -- -- 25
2020-07-09 21:00:00 34 0 Calma 20 Noroeste 0 -- -- 21
2020-07-09 20:00:00 34.7 11 Noroeste 22 Norte 0 -- -- 20
2020-07-09 19:00:00 35 13 Noroeste 27 Oeste 0 -- -- 17
2020-07-09 18:00:00 35.7 8 Sur 29 Oeste 0 -- -- 19
2020-07-09 17:00:00 35.9 10 Sudoeste 23 Sudeste 0 -- -- 19
2020-07-09 16:00:00 35 15 Sur 24 Sur 0 -- -- 20
2020-07-09 15:00:00 33.6 14 Sudoeste 21 Sudoeste 0 -- -- 24
2020-07-09 14:00:00 31.9 3 Sudoeste 17 Sudeste 0 -- -- 27
2020-07-09 13:00:00 30.7 5 Este 21 Oeste 0 -- -- 30
2020-07-09 12:00:00 28.8 8 Sudoeste 18 Sur 0 -- -- 37
2020-07-09 11:00:00 26.9 6 Sur 12 Sudeste 0 -- -- 43
2020-07-09 10:00:00 24.6 6 Sudeste 11 Este 0 -- -- 51
2020-07-09 09:00:00 22.6 3 Sudeste 6 Este 0 -- -- 56
2020-07-09 08:00:00 19.3 3 Noroeste 8 Norte 0 -- -- 68
2020-07-09 07:00:00 18.4 0 Calma 6 Nordeste 0 -- -- 67
2020-07-09 06:00:00 19.5 3 Nordeste 7 Nordeste 0 -- -- 66
2020-07-09 05:00:00 19.6 3 Este 15 Oeste 0 -- -- 65
2020-07-09 04:00:00 21 9 Oeste 14 Oeste 0 -- -- 61
2020-07-09 03:00:00 22 8 Sudoeste 21 Oeste 0 -- -- 58
2020-07-09 02:00:00 22.6 12 Sudoeste 19 Sudoeste 0 -- -- 55
2020-07-09 01:00:00 24.3 13 Sudoeste 23 Sudoeste 0 -- -- 46
2020-07-09 00:00:00 26.5 15 Oeste 28 Oeste 0 -- -- 36
2020-07-08 23:00:00 27.6 14 Oeste 21 Oeste 0 -- -- 27
2020-07-08 22:00:00 29.4 14 Oeste 35 Oeste 0 -- -- 22
2020-07-08 21:00:00 32.5 25 Oeste 38 Sudoeste 0 -- -- 21
2020-07-08 20:00:00 34.7 24 Oeste 35 Oeste 0 -- -- 21
2020-07-08 19:00:00 36.5 17 Sudoeste 32 Sudoeste 0 -- -- 13
2020-07-08 18:00:00 37 18 Sudoeste 36 Sudoeste 0 -- -- 13
2020-07-08 17:00:00 37.1 22 Oeste 37 Sudoeste 0 -- -- 15
2020-07-08 16:00:00 36.7 21 Sudoeste 40 Sudoeste 0 -- -- 17
2020-07-08 15:00:00 36.6 17 Sudoeste 32 Sudoeste 0 -- -- 19
2020-07-08 14:00:00 35.9 10 Sur 26 Este 0 -- -- 22
2020-07-08 13:00:00 33.9 6 Sur 19 Sur 0 -- -- 22
2020-07-08 12:00:00 32.1 5 Este 14 Sudoeste 0 -- -- 28
2020-07-08 11:00:00 30.4 5 Este 13 Sudeste 0 -- -- 32
2020-07-08 10:00:00 27.8 3 Nordeste 8 Sudeste 0 -- -- 40
2020-07-08 09:00:00 26.2 2 Sudeste 12 Sudoeste 0 -- -- 44
2020-07-08 08:00:00 24.7 8 Sudoeste 18 Oeste 0 -- -- 42
2020-07-08 07:00:00 25.4 13 Sudoeste 19 Sudoeste 0 -- -- 38
2020-07-08 06:00:00 25 6 Oeste 10 Sudoeste 0 -- -- 46
2020-07-08 05:00:00 26.2 7 Sudoeste 15 Sudoeste 0 -- -- 44
2020-07-08 04:00:00 27 5 Sudoeste 11 Sudoeste 0 -- -- 37
2020-07-08 03:00:00 28.6 5 Sur 14 Sudoeste 0 -- -- 32
2020-07-08 02:00:00 30 9 Sudoeste 23 Oeste 0 -- -- 29
2020-07-08 01:00:00 31.6 15 Oeste 24 Oeste 0 -- -- 25
2020-07-08 00:00:00 31.6 9 Oeste 13 Oeste 0 -- -- 23
2020-07-07 23:00:00 32.4 8 Oeste 12 Sudoeste 0 -- -- 20
2020-07-07 22:00:00 34 8 Sudoeste 13 Oeste 0 -- -- 18
2020-07-07 21:00:00 37.4 12 Oeste 22 Sudoeste 0 -- -- 16
2020-07-07 20:00:00 39.2 16 Sudoeste 30 Oeste 0 -- -- 14
2020-07-07 19:00:00 40.1 13 Oeste 24 Oeste 0 -- -- 15
2020-07-07 18:00:00 40 13 Sudoeste 35 Oeste 0 -- -- 14
2020-07-07 17:00:00 40 12 Oeste 32 Sudoeste 0 -- -- 14
2020-07-07 16:00:00 39.2 16 Oeste 34 Sudoeste 0 -- -- 14
2020-07-07 15:00:00 38.9 15 Sudoeste 33 Sudoeste 0 -- -- 12
2020-07-07 14:00:00 37.7 15 Oeste 30 Sudoeste 0 -- -- 12
2020-07-07 13:00:00 36.3 12 Sur 25 Sudeste 0 -- -- 19
2020-07-07 12:00:00 34 6 Sur 19 Sudeste 0 -- -- 29
2020-07-07 11:00:00 31.8 9 Sudeste 18 Sudeste 0 -- -- 34
2020-07-07 10:00:00 29.3 7 Este 13 Este 0 -- -- 38
2020-07-07 09:00:00 26.3 5 Oeste 13 Nordeste 0 -- -- 49
2020-07-07 08:00:00 26.3 6 Nordeste 18 Nordeste 0 -- -- 43
2020-07-07 07:00:00 25.4 8 Nordeste 15 Este 0 -- -- 44
2020-07-07 06:00:00 27.1 9 Nordeste 13 Nordeste 0 -- -- 39
2020-07-07 05:00:00 27.1 7 Nordeste 12 Nordeste 0 -- -- 36
2020-07-07 04:00:00 29.1 3 Noroeste 31 Norte 0 -- -- 33
2020-07-07 03:00:00 30.4 24 Norte 33 Norte 0 -- -- 31
2020-07-07 02:00:00 31 22 Noroeste 45 Noroeste 0 -- -- 33
2020-07-07 01:00:00 31.6 31 Noroeste 44 Noroeste 0 -- -- 34
2020-07-07 00:00:00 32 27 Oeste 40 Oeste 0 -- -- 35
2020-07-06 23:00:00 33.4 19 Oeste 30 Oeste 0 -- -- 23
2020-07-06 22:00:00 33.4 8 Norte 13 Norte 0 -- -- 23
2020-07-06 21:00:00 37.9 6 Noroeste 17 Norte 0 -- -- 19
2020-07-06 20:00:00 39 9 Norte 27 Norte 0 -- -- 17
2020-07-06 19:00:00 39.3 13 Noroeste 32 Norte 0 -- -- 16
2020-07-06 18:00:00 39.1 12 Nordeste 39 Norte 0 -- -- 16
2020-07-06 17:00:00 39.6 11 Noroeste 29 Norte 0 -- -- 15
2020-07-06 16:00:00 39 14 Norte 33 Norte 0 -- -- 16
2020-07-06 15:00:00 38.5 14 Noroeste 26 Noroeste 0 -- -- 17
2020-07-06 14:00:00 37.9 13 Norte 28 Norte 0 -- -- 18
2020-07-06 13:00:00 37.6 9 Nordeste 21 Sudeste 0 -- -- 20
2020-07-06 12:00:00 35.8 10 Este 21 Sudeste 0 -- -- 23
2020-07-06 11:00:00 33.5 9 Este 17 Este 0 -- -- 25
2020-07-06 10:00:00 31.3 4 Sudeste 12 Nordeste 0 -- -- 28
2020-07-06 09:00:00 28.7 11 Norte 19 Nordeste 0 -- -- 30
2020-07-06 08:00:00 27 14 Norte 24 Norte 0 -- -- 32
2020-07-06 07:00:00 26.9 11 Nordeste 19 Nordeste 0 -- -- 31
2020-07-06 06:00:00 26 4 Sudeste 21 Norte 0 -- -- 33
2020-07-06 05:00:00 29.2 12 Norte 24 Norte 0 -- -- 26
2020-07-06 04:00:00 29.3 18 Norte 34 Norte 0 -- -- 26
2020-07-06 03:00:00 29.6 22 Norte 28 Norte 0 -- -- 26
2020-07-06 02:00:00 30.5 24 Norte 32 Norte 0 -- -- 24
2020-07-06 01:00:00 31.7 22 Norte 28 Norte 0 -- -- 22
2020-07-06 00:00:00 31.1 17 Norte 23 Norte 0 -- -- 21
2020-07-05 23:00:00 30.8 16 Norte 19 Noroeste 0 -- -- 21
2020-07-05 22:00:00 31.5 13 Norte 14 Norte 0 -- -- 22
2020-07-05 21:00:00 35.9 11 Norte 21 Norte 0 -- -- 17
2020-07-05 20:00:00 37.3 14 Norte 23 Nordeste 0 -- -- 17
2020-07-05 19:00:00 38 5 Noroeste 28 Noroeste 0 -- -- 17
2020-07-05 18:00:00 38.1 13 Este 24 Oeste 0 -- -- 17
2020-07-05 17:00:00 38.3 15 Noroeste 30 Oeste 0 -- -- 17
2020-07-05 16:00:00 37.7 12 Nordeste 24 Norte 0 -- -- 17
2020-07-05 15:00:00 37.3 11 Nordeste 23 Nordeste 0 -- -- 18
2020-07-05 14:00:00 36.3 7 Norte 27 Este 0 -- -- 20
2020-07-05 13:00:00 35.4 15 Este 28 Este 0 -- -- 22
2020-07-05 12:00:00 32.9 21 Este 37 Este 0 -- -- 26
2020-07-05 11:00:00 30.3 26 Este 41 Este 0 -- -- 32
2020-07-05 10:00:00 28.5 24 Este 48 Este 0 -- -- 35
2020-07-05 09:00:00 26.8 32 Este 49 Este 0 -- -- 33
2020-07-05 08:00:00 26 23 Este 36 Este 0 -- -- 26
2020-07-05 07:00:00 26 24 Este 41 Este 0 -- -- 25
2020-07-05 06:00:00 26.3 10 Nordeste 20 Norte 0 -- -- 27
2020-07-05 05:00:00 28.1 13 Nordeste 26 Norte 0 -- -- 22
2020-07-05 04:00:00 28 17 Norte 32 Norte 0 -- -- 22
2020-07-05 03:00:00 27.9 21 Norte 36 Norte 0 -- -- 23
2020-07-05 02:00:00 28.6 23 Norte 34 Norte 0 -- -- 23
2020-07-05 01:00:00 29.1 20 Norte 30 Norte 0 -- -- 23
2020-07-05 00:00:00 29.2 15 Norte 21 Norte 0 -- -- 23
2020-07-04 23:00:00 29.2 14 Norte 16 Norte 0 -- -- 22
2020-07-04 22:00:00 29.8 12 Norte 13 Norte 0 -- -- 21
2020-07-04 21:00:00 34.6 8 Norte 18 Noroeste 0 -- -- 18
2020-07-04 20:00:00 35.7 13 Norte 23 Noroeste 0 -- -- 17
2020-07-04 19:00:00 35.9 10 Nordeste 25 Norte 0 -- -- 17
2020-07-04 18:00:00 35.9 9 Norte 25 Nordeste 0 -- -- 17
2020-07-04 17:00:00 36.5 10 Este 27 Nordeste 0 -- -- 17
2020-07-04 16:00:00 35.5 10 Nordeste 21 Nordeste 0 -- -- 17
2020-07-04 15:00:00 35.1 9 Sudeste 25 Sudeste 0 -- -- 18
2020-07-04 14:00:00 33.8 5 Norte 24 Este 0 -- -- 18
2020-07-04 13:00:00 33 14 Este 27 Este 0 -- -- 21
2020-07-04 12:00:00 31 20 Este 34 Este 0 -- -- 24
2020-07-04 11:00:00 29.2 23 Este 37 Nordeste 0 -- -- 27
2020-07-04 10:00:00 27.3 14 Este 22 Este 0 -- -- 28
2020-07-04 09:00:00 25.7 6 Este 19 Nordeste 0 -- -- 31
2020-07-04 08:00:00 23.9 11 Nordeste 19 Nordeste 0 -- -- 33
2020-07-04 07:00:00 22.7 11 Nordeste 26 Norte 0 -- -- 33
2020-07-04 06:00:00 23.4 15 Norte 40 Norte 0 -- -- 31
2020-07-04 05:00:00 24.2 29 Norte 41 Norte 0 -- -- 29
2020-07-04 04:00:00 24.5 30 Norte 42 Norte 0 -- -- 29
2020-07-04 03:00:00 25.1 30 Norte 43 Norte 0 -- -- 28
2020-07-04 02:00:00 25.6 23 Norte 33 Norte 0 -- -- 29
2020-07-04 01:00:00 26.3 22 Norte 35 Norte 0 -- -- 30
2020-07-04 00:00:00 26.8 21 Noroeste 27 Norte 0 -- -- 28
2020-07-03 23:00:00 25.6 9 Norte 12 Norte 0 -- -- 29
2020-07-03 22:00:00 26.5 8 Norte 10 Noroeste 0 -- -- 23
2020-07-03 21:00:00 32 5 Noroeste 16 Noroeste 0 -- -- 20
2020-07-03 20:00:00 32.6 10 Noroeste 19 Norte 0 -- -- 16
2020-07-03 19:00:00 32.7 12 Noroeste 23 Noroeste 0 -- -- 20
2020-07-03 18:00:00 32.7 14 Norte 23 Noroeste 0 -- -- 23
2020-07-03 17:00:00 32.8 13 Norte 24 Norte 0 -- -- 24
2020-07-03 16:00:00 31.9 7 Nordeste 24 Este 0 -- -- 25
2020-07-03 15:00:00 30.3 10 Noroeste 22 Noroeste 0 -- -- 28
2020-07-03 14:00:00 29.9 7 Este 23 Sudeste 0 -- -- 28
2020-07-03 13:00:00 28.4 8 Nordeste 24 Este 0 -- -- 31
2020-07-03 12:00:00 25.5 10 Nordeste 26 Noroeste -- -- -- 37
2020-07-03 11:00:00 22.9 18 Norte 29 Noroeste 0 -- -- 45
2020-07-03 10:00:00 20.5 21 Norte 42 Norte 0 -- -- 50
2020-07-03 09:00:00 19 29 Norte 43 Norte 0 -- -- 52
2020-07-03 08:00:00 18.5 19 Norte 36 Norte 0 -- -- 51
2020-07-03 07:00:00 18.3 14 Norte 27 Norte 0 -- -- 51
2020-07-03 06:00:00 18.5 8 Noroeste 24 Norte 0 -- -- 49
2020-07-03 05:00:00 18.6 19 Norte 41 Norte 0 -- -- 49
2020-07-03 04:00:00 19.7 27 Norte 43 Norte 0 -- -- 47
2020-07-03 03:00:00 20.1 24 Norte 39 Norte 0 -- -- 47
2020-07-03 02:00:00 20.7 17 Norte 28 Norte 0 -- -- 47
2020-07-03 01:00:00 21.4 17 Noroeste 28 Noroeste 0 -- -- 44
2020-07-03 00:00:00 22.1 15 Noroeste 28 Oeste 0 -- -- 43
2020-07-02 23:00:00 22.7 18 Oeste 28 Oeste 0 -- -- 41
2020-07-02 22:00:00 24.4 18 Oeste 38 Oeste 0 -- -- 30
2020-07-02 21:00:00 27.5 26 Oeste 39 Oeste 0 -- -- 25
2020-07-02 20:00:00 29.5 25 Oeste 40 Sudoeste 0 -- -- 23
2020-07-02 19:00:00 30.7 23 Oeste 41 Oeste 0 -- -- 23
2020-07-02 18:00:00 31.1 23 Oeste 39 Sudoeste 0 -- -- 23
2020-07-02 17:00:00 31.2 23 Oeste 45 Oeste 0 -- -- 27
2020-07-02 16:00:00 31.2 18 Oeste 37 Oeste 0 -- -- 29
2020-07-02 15:00:00 30.2 21 Oeste 41 Oeste 0 -- -- 30
2020-07-02 14:00:00 29.2 17 Oeste 36 Oeste 0 -- -- 36
2020-07-02 13:00:00 29.1 15 Sudoeste 27 Sudoeste 0 -- -- 36
2020-07-02 12:00:00 27.1 14 Oeste 26 Oeste 0 -- -- 41
2020-07-02 11:00:00 26.4 14 Sudoeste 19 Sudoeste 0 -- -- 45
2020-07-02 10:00:00 24.1 4 Sudoeste 17 Noroeste 0 -- -- 52
2020-07-02 09:00:00 21.2 4 Sur 6 Sur 0 -- -- 62
2020-07-02 08:00:00 19.4 6 Nordeste 11 Norte 0 -- -- 66
2020-07-02 07:00:00 18.9 5 Sudeste 14 Sur 0 -- -- 68
2020-07-02 06:00:00 20.2 7 Sudeste 14 Sudeste 0 -- -- 62
2020-07-02 05:00:00 19.7 4 Sudeste 13 Sudoeste 0 -- -- 63
2020-07-02 04:00:00 21.1 4 Sudeste 14 Sur 0 -- -- 58
2020-07-02 03:00:00 21.3 4 Oeste 14 Sudoeste 0 -- -- 58
2020-07-02 02:00:00 22.9 7 Sudoeste 15 Sudoeste 0 -- -- 55
2020-07-02 01:00:00 24.5 5 Sur 31 Noroeste 0 -- -- 48
2020-07-02 00:00:00 26.5 21 Noroeste 35 Noroeste 0 -- -- 40
2020-07-01 23:00:00 28 24 Noroeste 38 Oeste 0 -- -- 32
2020-07-01 22:00:00 29.6 22 Oeste 37 Oeste 0 -- -- 29
2020-07-01 21:00:00 32.6 23 Oeste 39 Oeste 0 -- -- 27
2020-07-01 20:00:00 34.7 14 Oeste 37 Oeste 0 -- -- 26
2020-07-01 19:00:00 35.1 18 Oeste 39 Sudoeste 0 -- -- 23
2020-07-01 18:00:00 35.1 17 Oeste 38 Oeste 0 -- -- 23
2020-07-01 17:00:00 35 13 Oeste 41 Oeste 0 -- -- 24
2020-07-01 16:00:00 34.5 14 Oeste 29 Oeste 0 -- -- 25
2020-07-01 15:00:00 33.7 14 Sudoeste 29 Sudoeste 0 -- -- 30
2020-07-01 14:00:00 32.4 13 Sudoeste 28 Oeste 0 -- -- 35
2020-07-01 13:00:00 30.8 14 Sudoeste 22 Sur 0 -- -- 38
2020-07-01 12:00:00 28.7 13 Noroeste 21 Oeste 0 -- -- 42
2020-07-01 11:00:00 25.9 9 Sudoeste 20 Sudoeste 0 -- -- 53
2020-07-01 10:00:00 22.8 7 Sudoeste 13 Oeste 0 -- -- 62
2020-07-01 09:00:00 20.4 7 Sudoeste 17 Oeste 0 -- -- 71
2020-07-01 08:00:00 18.3 8 Sudoeste 13 Sudoeste 0 -- -- 79
2020-07-01 07:00:00 17.8 4 Sur 12 Oeste 0 -- -- 79
2020-07-01 06:00:00 18.4 9 Sudoeste 14 Sudoeste 0 -- -- 77
2020-07-01 05:00:00 19.3 10 Sudoeste 18 Sudoeste 0 -- -- 73
2020-07-01 04:00:00 20.3 10 Sudoeste 17 Sudoeste 0 -- -- 68
2020-07-01 03:00:00 21.8 8 Sudoeste 16 Sudoeste 0 -- -- 59
2020-07-01 02:00:00 24.2 3 Sudoeste 14 Sudoeste 0 -- -- 52
2020-07-01 01:00:00 25.6 12 Sudoeste 38 Oeste 0 -- -- 44
2020-07-01 00:00:00 27.5 25 Oeste 39 Oeste 0 -- -- 36
2020-06-30 23:00:00 28.7 22 Oeste 35 Oeste 0 -- -- 38
2020-06-30 22:00:00 30.3 20 Oeste 40 Oeste 0 -- -- 31
2020-06-30 21:00:00 33.1 26 Oeste 40 Oeste 0 -- -- 27
2020-06-30 20:00:00 35.6 20 Oeste 40 Sudoeste 0 -- -- 23
2020-06-30 19:00:00 37 19 Sudoeste 38 Sudoeste 0 -- -- 21
2020-06-30 18:00:00 36.3 18 Sudoeste 40 Sudoeste 0 -- -- 23
2020-06-30 17:00:00 38.1 19 Sudoeste 41 Oeste 0 -- -- 21
2020-06-30 16:00:00 37.5 17 Oeste 33 Sudoeste 0 -- -- 22
2020-06-30 15:00:00 36.7 15 Oeste 36 Sudoeste 0 -- -- 24
2020-06-30 14:00:00 35.7 10 Sudoeste 26 Sudoeste 0 -- -- 28
2020-06-30 13:00:00 35 10 Sudoeste 22 Oeste 0 -- -- 24
2020-06-30 12:00:00 33.3 7 Sudeste 15 Sudeste 0 -- -- 29
2020-06-30 11:00:00 30.8 8 Este 18 Nordeste 0 -- -- 36
2020-06-30 10:00:00 27.6 12 Este 20 Este 0 -- -- 45
2020-06-30 09:00:00 25.2 5 Sudeste 8 Nordeste 0 -- -- 55
2020-06-30 08:00:00 23.1 6 Este 9 Nordeste 0 -- -- 57
2020-06-30 07:00:00 22.1 8 Nordeste 12 Nordeste 0 -- -- 59
2020-06-30 06:00:00 22.8 4 Sudeste 7 Este 0 -- -- 59
2020-06-30 05:00:00 23 2 Sudeste 9 Sudoeste 0 -- -- 58
2020-06-30 04:00:00 23.7 3 Sudeste 7 Sudeste 0 -- -- 55
2020-06-30 03:00:00 25 2 Sudeste 17 Oeste 0 -- -- 52
2020-06-30 02:00:00 26.4 5 Sudoeste 22 Sudoeste 0 -- -- 47
2020-06-30 01:00:00 27.9 9 Sur 29 Noroeste 0 -- -- 43
2020-06-30 00:00:00 30.1 17 Oeste 26 Oeste 0 -- -- 37
2020-06-29 23:00:00 30.1 17 Norte 20 Norte 0 -- -- 31
2020-06-29 22:00:00 31.3 14 Norte 17 Norte 0 -- -- 30
2020-06-29 21:00:00 35 8 Norte 16 Noroeste 0 -- -- 24
2020-06-29 20:00:00 36.8 8 Noroeste 21 Sudoeste 0 -- -- 23
2020-06-29 19:00:00 36.8 5 Oeste 22 Sudoeste 0 -- -- 23
2020-06-29 18:00:00 37 9 Sudoeste 27 Sudoeste 0 -- -- 22
2020-06-29 17:00:00 37.2 14 Sudoeste 26 Oeste 0 -- -- 23
2020-06-29 16:00:00 35.9 12 Oeste 27 Sudoeste 0 -- -- 22
2020-06-29 15:00:00 35.2 12 Sudoeste 28 Sudoeste 0 -- -- 27
2020-06-29 14:00:00 34.2 12 Oeste 23 Oeste 0 -- -- 30
2020-06-29 13:00:00 32.4 10 Oeste 21 Sudoeste 0 -- -- 34
2020-06-29 12:00:00 30.9 7 Norte 16 Nordeste 0 -- -- 38
2020-06-29 11:00:00 28.6 9 Norte 19 Norte 0 -- -- 42
2020-06-29 10:00:00 26.1 13 Norte 24 Norte 0 -- -- 48
2020-06-29 09:00:00 24.2 12 Norte 29 Norte 0 -- -- 53
2020-06-29 08:00:00 23 19 Norte 42 Norte 0 -- -- 56
2020-06-29 07:00:00 22.5 32 Norte 45 Norte 0 -- -- 57
2020-06-29 06:00:00 22.9 26 Norte 45 Norte 0 -- -- 57
2020-06-29 05:00:00 23.4 31 Norte 45 Norte 0 -- -- 56
2020-06-29 04:00:00 24.1 31 Norte 44 Norte 0 -- -- 54
2020-06-29 03:00:00 24.8 30 Norte 42 Norte 0 -- -- 53
2020-06-29 02:00:00 25.3 30 Norte 44 Norte 0 -- -- 51
2020-06-29 01:00:00 26.3 31 Norte 41 Noroeste 0 -- -- 48
2020-06-29 00:00:00 27.1 27 Norte 37 Noroeste 0 -- -- 46
2020-06-28 23:00:00 28.1 20 Norte 31 Norte 0 -- -- 43
2020-06-28 22:00:00 29 14 Noroeste 22 Noroeste 0 -- -- 37
2020-06-28 21:00:00 32.3 12 Norte 25 Noroeste 0 -- -- 32
2020-06-28 20:00:00 33.5 12 Norte 24 Oeste 0 -- -- 29
2020-06-28 19:00:00 33.7 19 Noroeste 30 Noroeste 0 -- -- 27
2020-06-28 18:00:00 34.1 10 Noroeste 36 Noroeste 0 -- -- 27
2020-06-28 17:00:00 33.6 9 Noroeste 31 Norte 0 -- -- 29
2020-06-28 16:00:00 32.9 9 Nordeste 24 Noroeste 0 -- -- 32
2020-06-28 15:00:00 31.9 10 Noroeste 26 Noroeste 0 -- -- 33
2020-06-28 14:00:00 30.9 14 Oeste 24 Noroeste 0 -- -- 35
2020-06-28 13:00:00 29.4 13 Nordeste 28 Norte 0 -- -- 39
2020-06-28 12:00:00 28.2 17 Norte 34 Noroeste 0 -- -- 43
2020-06-28 11:00:00 26.1 24 Norte 36 Norte 0 -- -- 49
2020-06-28 10:00:00 24.5 20 Norte 35 Norte 0 -- -- 52
2020-06-28 09:00:00 22.1 27 Norte 39 Norte 0 -- -- 60
2020-06-28 08:00:00 21.2 25 Norte 37 Norte 0 -- -- 63
2020-06-28 07:00:00 20.9 23 Norte 35 Norte 0 -- -- 64
2020-06-28 06:00:00 21.1 19 Norte 32 Norte 0 -- -- 63
2020-06-28 05:00:00 21.6 19 Norte 39 Norte 0 -- -- 61
2020-06-28 04:00:00 21.8 26 Norte 40 Norte 0 -- -- 61
2020-06-28 03:00:00 22.2 31 Norte 42 Norte 0 -- -- 60
2020-06-28 02:00:00 22.9 27 Norte 40 Norte 0 -- -- 57
2020-06-28 01:00:00 23.6 26 Norte 40 Norte 0 -- -- 54
2020-06-28 00:00:00 24.5 25 Norte 38 Norte 0 -- -- 50
2020-06-27 23:00:00 25.5 26 Norte 38 Noroeste 0 -- -- 47
2020-06-27 22:00:00 26.9 21 Norte 29 Norte 0 -- -- 45
2020-06-27 21:00:00 29.6 15 Norte 26 Noroeste 0 -- -- 39
2020-06-27 20:00:00 30.9 9 Norte 35 Oeste 0 -- -- 36
2020-06-27 19:00:00 32.1 13 Noroeste 32 Oeste 0 -- -- 32
2020-06-27 18:00:00 32.2 19 Oeste 30 Oeste 0 -- -- 31
2020-06-27 17:00:00 32.2 15 Sudoeste 32 Oeste 0 -- -- 31
2020-06-27 16:00:00 30.9 12 Noroeste 31 Oeste 0 -- -- 33
2020-06-27 15:00:00 30.3 14 Sudoeste 28 Sudoeste 0 -- -- 34
2020-06-27 14:00:00 29 12 Oeste 32 Oeste 0 -- -- 36
2020-06-27 13:00:00 27.8 12 Oeste 24 Oeste 0 -- -- 40
2020-06-27 12:00:00 25.6 11 Oeste 26 Noroeste 0 -- -- 47
2020-06-27 11:00:00 23.9 8 Nordeste 17 Nordeste 0 -- -- 51
2020-06-27 10:00:00 21.6 5 Oeste 10 Sudoeste 0 -- -- 59
2020-06-27 09:00:00 18.9 4 Sudoeste 7 Oeste 0 -- -- 70
2020-06-27 08:00:00 16.8 3 Sudoeste 9 Sur 0 -- -- 77
2020-06-27 07:00:00 16.3 5 Sudoeste 14 Sudoeste 0 -- -- 77
2020-06-27 06:00:00 16.5 5 Sudeste 14 Sudoeste 0 -- -- 74
2020-06-27 05:00:00 17.1 4 Oeste 22 Sudoeste 0 -- -- 69
2020-06-27 04:00:00 17.7 3 Oeste 22 Oeste 0 -- -- 65
2020-06-27 03:00:00 18.7 11 Sudoeste 24 Sudoeste 0 -- -- 62
2020-06-27 02:00:00 19.7 19 Oeste 28 Sudoeste 0 -- -- 59
2020-06-27 01:00:00 20.7 12 Sudoeste 25 Oeste 0 -- -- 58
2020-06-27 00:00:00 22.2 17 Oeste 37 Oeste 0 -- -- 54
2020-06-26 23:00:00 23.8 26 Oeste 37 Oeste 0 -- -- 47
2020-06-26 22:00:00 25.3 17 Oeste 28 Oeste 0 -- -- 39
2020-06-26 21:00:00 28 18 Oeste 29 Oeste 0 -- -- 33
2020-06-26 20:00:00 29.3 18 Oeste 33 Oeste 0 -- -- 29
2020-06-26 19:00:00 29 16 Oeste 32 Oeste 0 -- -- 26
2020-06-26 18:00:00 29.3 17 Oeste 31 Sudoeste 0 -- -- 22
2020-06-26 17:00:00 30 13 Sudoeste 31 Sudoeste 0 -- -- 25
2020-06-26 16:00:00 29 11 Oeste 32 Noroeste 0 -- -- 27
2020-06-26 15:00:00 28.2 16 Sudoeste 30 Oeste 0 -- -- 30
2020-06-26 14:00:00 26.8 17 Sudoeste 27 Sudoeste 0 -- -- 36
2020-06-26 13:00:00 24.2 10 Sudoeste 24 Sudoeste 0 -- -- 42
2020-06-26 12:00:00 22.8 10 Sudoeste 21 Sudoeste 0 -- -- 48
2020-06-26 11:00:00 20.1 12 Sudoeste 18 Sudoeste 0 -- -- 58
2020-06-26 10:00:00 17.7 6 Sudoeste 14 Oeste 0 -- -- 67
2020-06-26 09:00:00 15.8 5 Sur 12 Sudoeste 0 -- -- 76
2020-06-26 08:00:00 13.5 5 Sudoeste 12 Sudoeste 0 -- -- 85
2020-06-26 07:00:00 12.9 9 Sudoeste 14 Sudoeste 0 -- -- 86
2020-06-26 06:00:00 14 11 Sudoeste 23 Sudoeste 0 -- -- 84
2020-06-26 05:00:00 15.4 13 Sudoeste 25 Sudoeste 0 -- -- 79
2020-06-26 04:00:00 16.7 19 Sudoeste 28 Sudoeste 0 -- -- 75
2020-06-26 03:00:00 18.4 15 Sudoeste 22 Sudoeste 0 -- -- 70
2020-06-26 02:00:00 20 18 Sudoeste 24 Sudoeste 0 -- -- 64
2020-06-26 01:00:00 21 11 Sudoeste 21 Oeste 0 -- -- 59
2020-06-26 00:00:00 22.8 13 Oeste 27 Oeste 0 -- -- 53
2020-06-25 23:00:00 24.8 17 Oeste 25 Oeste 0 -- -- 46
2020-06-25 22:00:00 27.1 15 Oeste 29 Oeste 0 -- -- 41
2020-06-25 21:00:00 29.6 20 Oeste 31 Oeste 0 -- -- 36
2020-06-25 20:00:00 31.8 23 Oeste 31 Oeste 0 -- -- 33
2020-06-25 19:00:00 32.4 20 Sudoeste 35 Oeste 0 -- -- 30
2020-06-25 18:00:00 33.5 20 Oeste 34 Sudoeste 0 -- -- 28
2020-06-25 17:00:00 33.4 14 Sur 34 Sudoeste 0 -- -- 27
2020-06-25 16:00:00 33.2 18 Sudoeste 57 Sudoeste 0 -- -- 26
2020-06-25 15:00:00 33.1 20 Sudoeste 35 Sudoeste 0 -- -- 26
2020-06-25 14:00:00 32.1 14 Oeste 25 Oeste 0 -- -- 29
2020-06-25 13:00:00 30.6 14 Sudoeste 29 Sur 0 -- -- 32
2020-06-25 12:00:00 29.3 15 Sudoeste 25 Sudoeste 0 -- -- 33
2020-06-25 11:00:00 27.4 9 Sur 14 Sudeste 0 -- -- 41
2020-06-25 10:00:00 24.5 2 Sur 8 Sudeste 0 -- -- 52
2020-06-25 09:00:00 22.2 3 Sur 9 Sudoeste 0 -- -- 62
2020-06-25 08:00:00 19.5 8 Sur 10 Sudoeste 0 -- -- 73
2020-06-25 07:00:00 19.6 9 Sudoeste 13 Sudoeste 0 -- -- 73
2020-06-25 06:00:00 19.7 3 Sudeste 11 Oeste 0 -- -- 68
2020-06-25 05:00:00 21 2 Sudoeste 8 Oeste 0 -- -- 64
2020-06-25 04:00:00 22 4 Sudoeste 8 Oeste 0 -- -- 56
2020-06-25 03:00:00 23.6 4 Sudoeste 6 Oeste 0 -- -- 48
2020-06-25 02:00:00 25.1 4 Sudeste 10 Sudeste 0 -- -- 41
2020-06-25 01:00:00 26.2 6 Sudeste 24 Noroeste 0 -- -- 36
2020-06-25 00:00:00 28 11 Oeste 28 Oeste 0 -- -- 30
2020-06-24 23:00:00 28.7 18 Oeste 27 Oeste 0 -- -- 29
2020-06-24 22:00:00 29.5 14 Oeste 27 Oeste 0 -- -- 30
2020-06-24 21:00:00 32.1 21 Oeste 31 Oeste 0 -- -- 27
2020-06-24 20:00:00 33.9 20 Oeste 32 Oeste 0 -- -- 27
2020-06-24 19:00:00 35.5 21 Oeste 39 Oeste 0 -- -- 26
2020-06-24 18:00:00 36.1 17 Sudoeste 33 Oeste 0 -- -- 26
2020-06-24 17:00:00 35.9 18 Sudoeste 33 Sudoeste 0 -- -- 26
2020-06-24 16:00:00 35.4 15 Sudoeste 28 Sudoeste 0 -- -- 29
2020-06-24 15:00:00 34.9 14 Sudoeste 24 Sudoeste 0 -- -- 29
2020-06-24 14:00:00 34.2 10 Sudeste 20 Sur 0 -- -- 30
2020-06-24 13:00:00 32.8 7 Sur 18 Sudoeste 0 -- -- 33
2020-06-24 12:00:00 30.8 8 Sudeste 15 Sudeste 0 -- -- 38
2020-06-24 11:00:00 28.8 7 Sur 17 Sudeste 0 -- -- 45
2020-06-24 10:00:00 26.7 9 Este 15 Sudeste 0 -- -- 50
2020-06-24 09:00:00 24.7 4 Este 8 Este 0 -- -- 55
2020-06-24 08:00:00 23 0 Calma 9 Sudeste 0 -- -- 61
2020-06-24 07:00:00 23.2 5 Sur 13 Este 0 -- -- 59
2020-06-24 06:00:00 23.6 9 Sudoeste 11 Sudoeste 0 -- -- 58
2020-06-24 05:00:00 24.3 3 Oeste 13 Sur 0 -- -- 55
2020-06-24 04:00:00 24.8 6 Sudeste 9 Sudeste 0 -- -- 51
2020-06-24 03:00:00 26.3 3 Oeste 19 Sudoeste 0 -- -- 46
2020-06-24 02:00:00 27.8 6 Noroeste 26 Oeste 0 -- -- 43
2020-06-24 01:00:00 28.7 6 Oeste 12 Sudoeste 0 -- -- 41
2020-06-24 00:00:00 30.1 6 Oeste 18 Oeste 0 -- -- 30
2020-06-23 23:00:00 31.4 7 Nordeste 11 Nordeste 0 -- -- 26
2020-06-23 22:00:00 33.3 3 Oeste 16 Oeste 0 -- -- 23
2020-06-23 21:00:00 36.4 13 Sudoeste 26 Sudoeste 0 -- -- 20
2020-06-23 20:00:00 37.5 13 Sudeste 23 Sudeste 0 -- -- 18
2020-06-23 19:00:00 38.4 19 Sur 29 Sur 0 -- -- 17
2020-06-23 18:00:00 38.8 16 Sur 30 Sur 0 -- -- 17
2020-06-23 17:00:00 38.6 15 Sudeste 41 Sur 0 -- -- 17
2020-06-23 16:00:00 38.5 10 Sudoeste 32 Sur 0 -- -- 18
2020-06-23 15:00:00 38.3 15 Sudeste 29 Sudeste 0 -- -- 18
2020-06-23 14:00:00 36.5 15 Este 30 Este 0 -- -- 23
2020-06-23 13:00:00 34.7 21 Este 33 Este 0 -- -- 26
2020-06-23 12:00:00 32.5 18 Este 34 Nordeste 0 -- -- 29
2020-06-23 11:00:00 30.3 22 Este 37 Este 0 -- -- 32
2020-06-23 10:00:00 28.5 21 Este 33 Este 0 -- -- 35
2020-06-23 09:00:00 26.7 17 Este 37 Este 0 -- -- 38
2020-06-23 08:00:00 25.2 24 Este 38 Este 0 -- -- 39
2020-06-23 07:00:00 25.2 24 Este 36 Este 0 -- -- 36
2020-06-23 06:00:00 25.2 10 Nordeste 14 Nordeste 0 -- -- 34
2020-06-23 05:00:00 27.3 9 Nordeste 12 Nordeste 0 -- -- 28
2020-06-23 04:00:00 27.5 9 Nordeste 18 Norte 0 -- -- 30
2020-06-23 03:00:00 25.6 8 Norte 22 Sur 0 -- -- 35
2020-06-23 02:00:00 27.6 7 Nordeste 14 Norte 0 -- -- 29
2020-06-23 01:00:00 30.6 11 Norte 15 Norte 0 -- -- 24
2020-06-23 00:00:00 30.6 10 Norte 15 Norte 0 -- -- 24
2020-06-22 23:00:00 30.4 11 Norte 15 Norte 0 -- -- 27
2020-06-22 22:00:00 31.6 9 Nordeste 17 Nordeste 0 -- -- 27
2020-06-22 21:00:00 34.7 10 Norte 22 Norte 0 -- -- 24
2020-06-22 20:00:00 36.3 15 Norte 25 Norte 0 -- -- 22
2020-06-22 19:00:00 37.3 8 Norte 25 Nordeste 0 -- -- 19
2020-06-22 18:00:00 37.2 7 Nordeste 21 Nordeste 0 -- -- 20
2020-06-22 17:00:00 37.2 7 Este 29 Este 0 -- -- 20
2020-06-22 16:00:00 36.8 13 Este 32 Sudeste 0 -- -- 21
2020-06-22 15:00:00 35.9 13 Sudeste 29 Nordeste 0 -- -- 22
2020-06-22 14:00:00 34.7 17 Este 35 Este 0 -- -- 26
2020-06-22 13:00:00 32.8 23 Este 40 Este 0 -- -- 29
2020-06-22 12:00:00 31 28 Este 43 Este 0 -- -- 31
2020-06-22 11:00:00 29.1 27 Este 51 Este 0 -- -- 35
2020-06-22 10:00:00 27.1 31 Este 54 Este 0 -- -- 38
2020-06-22 09:00:00 25.3 24 Este 43 Este 0 -- -- 41
2020-06-22 08:00:00 23.6 26 Este 38 Nordeste 0 -- -- 43
2020-06-22 07:00:00 22.7 13 Nordeste 20 Nordeste 0 -- -- 42
2020-06-22 06:00:00 23.5 12 Norte 31 Norte 0 -- -- 49
2020-06-22 05:00:00 24.1 24 Norte 41 Norte 0 -- -- 49
2020-06-22 04:00:00 24.2 26 Norte 45 Norte 0 -- -- 48
2020-06-22 03:00:00 25 29 Norte 44 Norte 0 -- -- 45
2020-06-22 02:00:00 25.5 27 Norte 38 Norte 0 -- -- 40
2020-06-22 01:00:00 26.2 24 Norte 35 Norte 0 -- -- 35
2020-06-22 00:00:00 26.7 23 Norte 38 Norte 0 -- -- 37
2020-06-21 23:00:00 28.1 23 Norte 33 Norte 0 -- -- 30
2020-06-21 22:00:00 28.7 16 Noroeste 26 Noroeste 0 -- -- 27
2020-06-21 21:00:00 31.4 12 Noroeste 23 Noroeste 0 -- -- 24
2020-06-21 20:00:00 32.7 13 Noroeste 26 Noroeste 0 -- -- 23
2020-06-21 19:00:00 33.4 13 Noroeste 24 Noroeste 0 -- -- 22
2020-06-21 18:00:00 33.8 10 Noroeste 26 Norte 0 -- -- 22
2020-06-21 17:00:00 33.2 8 Noroeste 23 Noroeste 0 -- -- 22
2020-06-21 16:00:00 32.9 10 Norte 24 Noroeste 0 -- -- 19
2020-06-21 15:00:00 31.6 10 Noroeste 26 Oeste 0 -- -- 20
2020-06-21 14:00:00 30.5 11 Norte 23 Noroeste 0 -- -- 21
2020-06-21 13:00:00 29.1 10 Noroeste 22 Norte 0 -- -- 26
2020-06-21 12:00:00 27.8 11 Norte 32 Norte -- -- -- 29
2020-06-21 11:00:00 25 27 Norte 36 Norte 0 -- -- 36
2020-06-21 10:00:00 23.4 17 Norte 32 Norte 0 -- -- 43
2020-06-21 09:00:00 20.2 7 Sudoeste 15 Sudoeste 0 -- -- 53
2020-06-21 08:00:00 17.3 8 Sudoeste 13 Sudoeste 0 -- -- 65
2020-06-21 07:00:00 17.6 4 Nordeste 10 Noroeste 0 -- -- 62
2020-06-21 06:00:00 16.4 6 Sudoeste 10 Sudoeste 0 -- -- 70
2020-06-21 05:00:00 17 4 Sudoeste 9 Sur 0 -- -- 66
2020-06-21 04:00:00 18.3 4 Sudoeste 17 Sudeste 0 -- -- 61
2020-06-21 03:00:00 20.5 5 Sur 17 Sudoeste 0 -- -- 56
2020-06-21 02:00:00 21.4 9 Sudoeste 21 Oeste 0 -- -- 53
2020-06-21 01:00:00 22.6 8 Sudoeste 29 Noroeste 0 -- -- 48
2020-06-21 00:00:00 24.3 17 Oeste 32 Oeste 0 -- -- 45
2020-06-20 23:00:00 26 21 Oeste 37 Oeste 0 -- -- 42
2020-06-20 22:00:00 27.7 13 Oeste 24 Oeste 0 -- -- 29
2020-06-20 21:00:00 30.9 16 Oeste 33 Oeste 0 -- -- 21
2020-06-20 20:00:00 32.1 20 Oeste 32 Oeste 0 -- -- 22
2020-06-20 19:00:00 32.8 13 Noroeste 31 Oeste 0 -- -- 21
2020-06-20 18:00:00 32.7 13 Noroeste 26 Oeste 0 -- -- 22
2020-06-20 17:00:00 33.2 12 Oeste 30 Oeste 0 -- -- 23
2020-06-20 16:00:00 32.1 10 Sudoeste 29 Sudoeste 0 -- -- 25
2020-06-20 15:00:00 31.5 16 Sudoeste 28 Sudoeste 0 -- -- 26
2020-06-20 14:00:00 30.2 9 Oeste 23 Oeste 0 -- -- 30
2020-06-20 13:00:00 29.2 12 Sudoeste 21 Sudoeste 0 -- -- 33
2020-06-20 12:00:00 27 6 Sur 15 Noroeste 0 -- -- 38
2020-06-20 11:00:00 24.6 4 Noroeste 12 Oeste 0 -- -- 43
2020-06-20 10:00:00 22.1 5 Sudoeste 10 Sudoeste 0 -- -- 49
2020-06-20 09:00:00 19.2 2 Sudoeste 11 Oeste 0 -- -- 58
2020-06-20 08:00:00 19.8 12 Norte 24 Norte 0 -- -- 53
2020-06-20 07:00:00 18.7 2 Sur 41 Norte 0 -- -- 55
2020-06-20 06:00:00 20.2 24 Norte 35 Norte 0 -- -- 50
2020-06-20 05:00:00 18.4 12 Noroeste 28 Noroeste 0 -- -- 57
2020-06-20 04:00:00 17.8 4 Sudeste 11 Sudeste 0 -- -- 57
2020-06-20 03:00:00 19 3 Sudeste 9 Oeste 0 -- -- 53
2020-06-20 02:00:00 19.7 5 Sudoeste 14 Noroeste 0 -- -- 51
2020-06-20 01:00:00 21.3 7 Oeste 26 Noroeste 0 -- -- 45
2020-06-20 00:00:00 24.1 15 Noroeste 36 Oeste 0 -- -- 37
2020-06-19 23:00:00 25.2 23 Oeste 35 Oeste 0 -- -- 34
2020-06-19 22:00:00 25.5 10 Noroeste 22 Oeste 0 -- -- 27
2020-06-19 21:00:00 29.4 11 Oeste 19 Oeste 0 -- -- 23
2020-06-19 20:00:00 30.5 12 Sudoeste 28 Oeste 0 -- -- 20
2020-06-19 19:00:00 30.7 13 Oeste 29 Oeste 0 -- -- 21
2020-06-19 18:00:00 30.7 15 Oeste 37 Sudoeste 0 -- -- 23
2020-06-19 17:00:00 30.1 15 Oeste 30 Oeste 0 -- -- 25
2020-06-19 16:00:00 29.3 17 Noroeste 27 Oeste 0 -- -- 27
2020-06-19 15:00:00 28.6 14 Sur 26 Sudoeste 0 -- -- 29
2020-06-19 14:00:00 27.8 7 Sudoeste 28 Oeste 0 -- -- 33
2020-06-19 13:00:00 26.8 13 Sudoeste 22 Sudoeste 0 -- -- 37
2020-06-19 12:00:00 24.6 10 Sudoeste 18 Sudoeste 0 -- -- 42
2020-06-19 11:00:00 22.7 7 Oeste 16 Sudoeste 0 -- -- 47
2020-06-19 10:00:00 20 6 Sudoeste 13 Oeste 0 -- -- 55
2020-06-19 09:00:00 17.1 6 Oeste 10 Oeste 0 -- -- 62
2020-06-19 08:00:00 14.4 3 Sudoeste 6 Sudoeste 0 -- -- 69
2020-06-19 07:00:00 13.8 4 Sudoeste 8 Sur 0 -- -- 69
2020-06-19 06:00:00 15.3 5 Sudoeste 15 Sudoeste 0 -- -- 64
2020-06-19 05:00:00 16 6 Sudoeste 23 Noroeste 0 -- -- 62
2020-06-19 04:00:00 18.8 14 Noroeste 33 Oeste 0 -- -- 52
2020-06-19 03:00:00 18.2 6 Sudoeste 24 Noroeste 0 -- -- 56
2020-06-19 02:00:00 19.5 11 Oeste 29 Noroeste 0 -- -- 52
2020-06-19 01:00:00 20.4 22 Noroeste 39 Noroeste 0 -- -- 50
2020-06-19 00:00:00 22.2 30 Noroeste 39 Noroeste 0 -- -- 43
2020-06-18 23:00:00 23.1 14 Noroeste 23 Norte 0 -- -- 40
2020-06-18 22:00:00 24.9 12 Noroeste 24 Oeste 0 -- -- 36
2020-06-18 21:00:00 27 14 Oeste 26 Oeste 0 -- -- 31
2020-06-18 20:00:00 29.1 14 Oeste 32 Sudoeste 0 -- -- 28
2020-06-18 19:00:00 29.3 13 Sudoeste 34 Sudoeste 0 -- -- 27
2020-06-18 18:00:00 29.3 14 Sudoeste 30 Sudoeste 0 -- -- 27
2020-06-18 17:00:00 29 17 Oeste 30 Sudoeste 0 -- -- 28
2020-06-18 16:00:00 28.3 13 Oeste 34 Oeste 0 -- -- 30
2020-06-18 15:00:00 28.3 15 Sudoeste 27 Noroeste 0 -- -- 32
2020-06-18 14:00:00 27.1 12 Oeste 25 Oeste 0 -- -- 33
2020-06-18 13:00:00 25.6 6 Nordeste 19 Norte 0 -- -- 37
2020-06-18 12:00:00 24 10 Norte 17 Norte 0 -- -- 40
2020-06-18 11:00:00 21.9 8 Norte 22 Norte 0 -- -- 45
2020-06-18 10:00:00 20.4 13 Norte 25 Nordeste 0 -- -- 49
2020-06-18 09:00:00 16.3 3 Sudoeste 8 Sur 0 -- -- 67
2020-06-18 08:00:00 13.7 0 Calma 5 Sudoeste 0 -- -- 74
2020-06-18 07:00:00 12.8 2 Sudoeste 9 Sudoeste 0 -- -- 76
2020-06-18 06:00:00 13.3 2 Sudeste 10 Sudoeste 0 -- -- 73
2020-06-18 05:00:00 14.2 6 Sudoeste 9 Sudoeste 0 -- -- 69
2020-06-18 04:00:00 15.2 4 Sudoeste 10 Sudoeste 0 -- -- 66
2020-06-18 03:00:00 16.5 4 Sudoeste 14 Oeste 0 -- -- 61
2020-06-18 02:00:00 18 6 Oeste 18 Noroeste 0 -- -- 56
2020-06-18 01:00:00 19 10 Oeste 31 Oeste 0 -- -- 53
2020-06-18 00:00:00 20.3 22 Oeste 34 Oeste 0 -- -- 49
2020-06-17 23:00:00 21.1 15 Oeste 26 Oeste 0 -- -- 44
2020-06-17 22:00:00 22.1 10 Oeste 20 Oeste 0 -- -- 38
2020-06-17 21:00:00 25.2 15 Oeste 29 Oeste 0 -- -- 31
2020-06-17 20:00:00 26.4 17 Oeste 32 Oeste 0 -- -- 30
2020-06-17 19:00:00 26.5 17 Oeste 31 Oeste 0 -- -- 30
2020-06-17 18:00:00 26.9 15 Oeste 28 Oeste 0 -- -- 30
2020-06-17 17:00:00 26.2 8 Noroeste 28 Oeste 0 -- -- 26
2020-06-17 16:00:00 26.2 12 Sudoeste 26 Oeste 0 -- -- 29
2020-06-17 15:00:00 25.1 18 Oeste 30 Sudoeste 0 -- -- 34
2020-06-17 14:00:00 24.1 11 Sudoeste 26 Sudoeste 0 -- -- 35
2020-06-17 13:00:00 22.1 11 Norte 24 Norte 0 -- -- 41
2020-06-17 12:00:00 20.6 10 Norte 23 Noroeste 0 -- -- 47
2020-06-17 11:00:00 18.9 13 Norte 22 Norte 0 -- -- 51
2020-06-17 10:00:00 17.5 7 Noroeste 15 Oeste 0 -- -- 55
2020-06-17 09:00:00 14.6 3 Sudoeste 8 Sudoeste 0 -- -- 65
2020-06-17 08:00:00 12.6 3 Este 5 Sudeste 0 -- -- 72
2020-06-17 07:00:00 12.2 3 Sudeste 13 Sudoeste 0 -- -- 70
2020-06-17 06:00:00 13.1 3 Sudoeste 12 Sudoeste 0 -- -- 67
2020-06-17 05:00:00 13.3 6 Sudeste 28 Norte 0 -- -- 67
2020-06-17 04:00:00 13.9 9 Noroeste 21 Noroeste 0 -- -- 65
2020-06-17 03:00:00 13.9 11 Oeste 22 Sudoeste 0 -- -- 67
2020-06-17 02:00:00 15.2 12 Sudoeste 28 Noroeste 0 -- -- 63
2020-06-17 01:00:00 16.6 18 Noroeste 36 Noroeste 0 -- -- 59
2020-06-17 00:00:00 17.8 22 Oeste 39 Oeste 0 -- -- 57
2020-06-16 23:00:00 19.2 29 Noroeste 39 Noroeste 0 -- -- 57
2020-06-16 22:00:00 20.5 23 Oeste 42 Oeste 0 -- -- 52
2020-06-16 21:00:00 23.1 28 Oeste 44 Oeste 0 -- -- 41
2020-06-16 20:00:00 24.7 26 Noroeste 49 Oeste 0 -- -- 38
2020-06-16 19:00:00 25.9 28 Noroeste 50 Oeste 0 -- -- 38
2020-06-16 18:00:00 24.9 30 Oeste 43 Oeste 0 -- -- 40
2020-06-16 17:00:00 25.9 24 Oeste 38 Oeste 0 -- -- 37
2020-06-16 16:00:00 25.7 17 Noroeste 41 Oeste 0 -- -- 36
2020-06-16 15:00:00 26.6 21 Oeste 36 Oeste 0 -- -- 35
2020-06-16 14:00:00 25.6 16 Oeste 36 Oeste 0 -- -- 37
2020-06-16 13:00:00 24.4 17 Oeste 34 Oeste 0 -- -- 39
2020-06-16 12:00:00 22.8 13 Oeste 27 Sudoeste 0 -- -- 41
2020-06-16 11:00:00 21.6 14 Oeste 25 Oeste 0 -- -- 47
2020-06-16 10:00:00 19.6 3 Sur 13 Sudoeste 0 -- -- 53
2020-06-16 09:00:00 17.4 6 Sudoeste 11 Sudoeste 0 -- -- 62
2020-06-16 08:00:00 14.4 5 Noroeste 10 Noroeste 0 -- -- 72
2020-06-16 07:00:00 13.9 8 Sudoeste 12 Sudoeste 0 -- -- 74
2020-06-16 06:00:00 15.6 5 Sur 26 Noroeste 0 -- -- 64
2020-06-16 05:00:00 16.2 12 Norte 22 Noroeste 0 -- -- 61
2020-06-16 04:00:00 16.6 11 Noroeste 25 Noroeste 0 -- -- 60
2020-06-16 03:00:00 17.5 18 Norte 40 Norte 0 -- -- 57
2020-06-16 02:00:00 17.8 25 Noroeste 38 Norte 0 -- -- 57
2020-06-16 01:00:00 18.6 26 Norte 35 Norte 0 -- -- 55
2020-06-16 00:00:00 19.3 23 Norte 34 Norte 0 -- -- 53
2020-06-15 23:00:00 20.3 17 Noroeste 33 Norte 0 -- -- 51
2020-06-15 22:00:00 21.8 19 Noroeste 28 Norte 0 -- -- 46
2020-06-15 21:00:00 24.4 13 Noroeste 28 Oeste 0 -- -- 39
2020-06-15 20:00:00 25.6 16 Oeste 29 Oeste 0 -- -- 36
2020-06-15 19:00:00 26 10 Noroeste 29 Oeste 0 -- -- 35
2020-06-15 18:00:00 27.1 18 Oeste 32 Oeste 0 -- -- 33
2020-06-15 17:00:00 27.3 14 Oeste 29 Oeste 0 -- -- 34
2020-06-15 16:00:00 26 15 Oeste 31 Oeste 0 -- -- 36
2020-06-15 15:00:00 25.1 16 Sudoeste 33 Sudoeste 0 -- -- 39
2020-06-15 14:00:00 23.6 10 Oeste 21 Sudoeste 0 -- -- 43
2020-06-15 13:00:00 23.3 10 Sudoeste 22 Oeste 0 -- -- 45
2020-06-15 12:00:00 22 8 Sudoeste 18 Sudoeste 0 -- -- 50
2020-06-15 11:00:00 20.1 4 Oeste 15 Sur 0 -- -- 55
2020-06-15 10:00:00 18 4 Sur 10 Sudoeste 0 -- -- 64
2020-06-15 09:00:00 15.3 4 Sudoeste 8 Sudoeste 0 -- -- 73
2020-06-15 08:00:00 13.3 0 Calma 5 Sur 0 -- -- 79
2020-06-15 07:00:00 12.3 2 Este 10 Sudoeste 0 -- -- 81
2020-06-15 06:00:00 13.1 7 Sudoeste 18 Sudoeste 0 -- -- 79
2020-06-15 05:00:00 13.3 8 Oeste 13 Sudoeste 0 -- -- 77
2020-06-15 04:00:00 14.3 3 Sudoeste 10 Sudoeste 0 -- -- 71
2020-06-15 03:00:00 16.1 5 Sudoeste 21 Noroeste 0 -- -- 63
2020-06-15 02:00:00 16.6 10 Oeste 20 Oeste 0 -- -- 62
2020-06-15 01:00:00 17.7 14 Oeste 32 Noroeste 0 -- -- 59
2020-06-15 00:00:00 18.5 19 Noroeste 32 Oeste 0 -- -- 55
2020-06-14 23:00:00 19.5 21 Oeste 40 Oeste 0 -- -- 53
2020-06-14 22:00:00 21.8 23 Oeste 34 Sudoeste 0 -- -- 45
2020-06-14 21:00:00 24.7 17 Oeste 29 Oeste 0 -- -- 35
2020-06-14 20:00:00 25.9 17 Oeste 31 Oeste 0 -- -- 32
2020-06-14 19:00:00 26.1 13 Oeste 32 Oeste 0 -- -- 30
2020-06-14 18:00:00 26.8 12 Oeste 33 Sudoeste 0 -- -- 29
2020-06-14 17:00:00 26.3 8 Sudoeste 30 Oeste 0 -- -- 30
2020-06-14 16:00:00 25.4 15 Oeste 30 Oeste 0 -- -- 31
2020-06-14 15:00:00 24.1 8 Norte 27 Oeste 0 -- -- 35
2020-06-14 14:00:00 23.4 11 Noroeste 25 Oeste 0 -- -- 37
2020-06-14 13:00:00 23.2 14 Oeste 33 Sudoeste 0 -- -- 38
2020-06-14 12:00:00 21.9 10 Sudoeste 23 Sudoeste 0 -- -- 43
2020-06-14 11:00:00 20.6 5 Oeste 13 Sudoeste 0 -- -- 47
2020-06-14 10:00:00 18 4 Oeste 10 Oeste 0 -- -- 55
2020-06-14 09:00:00 16.8 5 Nordeste 12 Norte 0 -- -- 60
2020-06-14 08:00:00 12.9 0 Calma 9 Sudoeste 0 -- -- 73
2020-06-14 07:00:00 12.4 3 Sudeste 10 Norte 0 -- -- 71
2020-06-14 06:00:00 13.1 5 Norte 9 Norte 0 -- -- 69
2020-06-14 05:00:00 13 3 Sudeste 10 Norte 0 -- -- 69
2020-06-14 04:00:00 14.8 3 Oeste 25 Norte 0 -- -- 61
2020-06-14 03:00:00 15.5 19 Norte 28 Norte 0 -- -- 59
2020-06-14 02:00:00 16.3 20 Norte 27 Norte 0 -- -- 57
2020-06-14 01:00:00 16.7 19 Noroeste 30 Noroeste 0 -- -- 56
2020-06-14 00:00:00 17.5 23 Noroeste 33 Noroeste 0 -- -- 54
2020-06-13 23:00:00 18.3 15 Noroeste 22 Noroeste 0 -- -- 50
2020-06-13 22:00:00 19.1 14 Oeste 25 Oeste 0 -- -- 47
2020-06-13 21:00:00 21.3 15 Oeste 27 Oeste 0 -- -- 42
2020-06-13 20:00:00 22 20 Oeste 36 Oeste 0 -- -- 39
2020-06-13 19:00:00 21.7 9 Sudoeste 28 Oeste 0 -- -- 40
2020-06-13 18:00:00 22.7 16 Sudoeste 33 Sudoeste 0 -- -- 38
2020-06-13 17:00:00 22.1 16 Oeste 29 Oeste 0 -- -- 38
2020-06-13 16:00:00 22.6 14 Oeste 30 Oeste 0 -- -- 38
2020-06-13 15:00:00 21.8 17 Oeste 29 Oeste 0 -- -- 38
2020-06-13 14:00:00 20.7 8 Oeste 34 Sudoeste 0 -- -- 44
2020-06-13 13:00:00 20.4 8 Noroeste 25 Oeste 0 -- -- 46
2020-06-13 12:00:00 18.7 15 Oeste 22 Oeste 0 -- -- 53
2020-06-13 11:00:00 16.7 9 Oeste 24 Oeste 0 -- -- 61
2020-06-13 10:00:00 16.1 18 Sudoeste 27 Oeste 0 -- -- 66
2020-06-13 09:00:00 14.6 10 Oeste 19 Oeste 0 -- -- 70
2020-06-13 08:00:00 12.6 8 Oeste 24 Oeste 0 -- -- 80
2020-06-13 07:00:00 11.7 19 Oeste 36 Oeste 0 -- -- 85
2020-06-13 06:00:00 10.9 12 Oeste 25 Oeste 0 -- -- 88
2020-06-13 05:00:00 10.4 10 Sudoeste 19 Sudoeste 0 -- -- 85
2020-06-13 04:00:00 11.6 10 Sudoeste 23 Oeste 0 -- -- 79
2020-06-13 03:00:00 11.3 11 Sudoeste 19 Oeste 0 -- -- 76
2020-06-13 02:00:00 13 14 Oeste 24 Oeste 0 -- -- 70
2020-06-13 01:00:00 13.5 14 Oeste 26 Oeste 0 -- -- 68
2020-06-13 00:00:00 13.7 15 Oeste 24 Oeste 0 -- -- 66
2020-06-12 23:00:00 14.7 10 Oeste 31 Oeste 0 -- -- 61
2020-06-12 22:00:00 15.7 22 Oeste 41 Oeste 0 -- -- 56
2020-06-12 21:00:00 18.1 20 Oeste 40 Oeste 0 -- -- 50
2020-06-12 20:00:00 19.1 32 Oeste 49 Oeste 0 -- -- 45
2020-06-12 19:00:00 20.4 24 Oeste 38 Noroeste 0 -- -- 47
2020-06-12 18:00:00 18.5 25 Oeste 57 Oeste 0 -- -- 50
2020-06-12 17:00:00 21.2 27 Sudoeste 45 Sudoeste 0 -- -- 44
2020-06-12 16:00:00 21.4 28 Sudoeste 46 Oeste 0 -- -- 40
2020-06-12 15:00:00 20.3 26 Oeste 41 Oeste 0 -- -- 47
2020-06-12 14:00:00 19.4 24 Oeste 43 Oeste 0 -- -- 47
2020-06-12 13:00:00 18.3 22 Oeste 32 Oeste 0 -- -- 51
2020-06-12 12:00:00 16.8 21 Oeste 37 Oeste 0 -- -- 58
2020-06-12 11:00:00 16 23 Oeste 39 Oeste 0 -- -- 64
2020-06-12 10:00:00 14.3 24 Oeste 36 Oeste 0 -- -- 70
2020-06-12 09:00:00 12.8 14 Sudoeste 21 Sudoeste 0 -- -- 77
2020-06-12 08:00:00 9.7 3 Oeste 10 Sudoeste 0 -- -- 84
2020-06-12 07:00:00 8.8 3 Sudoeste 15 Sudoeste 0 -- -- 84
2020-06-12 06:00:00 8.9 10 Sudoeste 17 Oeste 0 -- -- 82
2020-06-12 05:00:00 9.5 9 Oeste 17 Oeste 0 -- -- 77
2020-06-12 04:00:00 10.3 13 Oeste 27 Oeste 0 -- -- 73
2020-06-12 03:00:00 11 17 Oeste 31 Oeste 0 -- -- 69
2020-06-12 02:00:00 11.5 18 Oeste 24 Oeste 0 -- -- 67
2020-06-12 01:00:00 13.3 13 Oeste 31 Oeste 0 -- -- 59
2020-06-12 00:00:00 13.6 19 Noroeste 32 Oeste 0 -- -- 64
2020-06-11 23:00:00 14.3 20 Oeste 39 Oeste 0 -- -- 62
2020-06-11 22:00:00 15.9 23 Oeste 47 Oeste 0 -- -- 57
2020-06-11 21:00:00 18.8 28 Oeste 52 Oeste 0 -- -- 47
2020-06-11 20:00:00 20.3 31 Oeste 56 Oeste 0 -- -- 42
2020-06-11 19:00:00 21.3 40 Oeste 75 Oeste 0 -- -- 47
2020-06-11 18:00:00 21.9 32 Oeste 58 Oeste 0 -- -- 51
2020-06-11 17:00:00 22.9 36 Oeste 58 Oeste 0 -- -- 49
2020-06-11 16:00:00 24.5 33 Oeste 54 Oeste 0 -- -- 43
2020-06-11 15:00:00 24.6 31 Oeste 49 Oeste 0 -- -- 42
2020-06-11 14:00:00 22.8 27 Oeste 37 Oeste 0 -- -- 41
2020-06-11 13:00:00 22.3 22 Oeste 41 Oeste 0 -- -- 42
2020-06-11 12:00:00 20.6 15 Oeste 31 Oeste 0 -- -- 46
2020-06-11 11:00:00 18.9 18 Oeste 30 Sudoeste 0 -- -- 49
2020-06-11 10:00:00 16.9 16 Oeste 27 Sudoeste 0 -- -- 55
2020-06-11 09:00:00 14.6 17 Sudoeste 30 Sudoeste 0 -- -- 65
2020-06-11 08:00:00 12.4 19 Sudoeste 28 Oeste 0 -- -- 73
2020-06-11 07:00:00 11.8 19 Sudoeste 30 Sudoeste 0 -- -- 76
2020-06-11 06:00:00 12.4 18 Sudoeste 29 Sudoeste 0 -- -- 72
2020-06-11 05:00:00 12.6 18 Sudoeste 27 Sudoeste 0 -- -- 74
2020-06-11 04:00:00 13.2 16 Sudoeste 26 Sudoeste 0 -- -- 72
2020-06-11 03:00:00 14.2 14 Sudoeste 22 Sudoeste 0 -- -- 69
2020-06-11 02:00:00 15.7 15 Sudoeste 21 Sudoeste 0 -- -- 64
2020-06-11 01:00:00 17.2 13 Oeste 23 Sudoeste 0 -- -- 56
2020-06-11 00:00:00 19.2 16 Oeste 33 Oeste 0 -- -- 51